Time;durP1;ratioP1;P1;durP2;ratioP2;P2;SDS_P1;SDS_P2;PMS_P1;PMS_P2;Temp;Humidity;BMP_temperature;BMP_pressure;BME280_temperature;BME280_humidity;BME280_pressure;Samples;Min_cycle;Max_cycle;Signal;HPM_P1;HPM_P2
2023/02/25 00:01:45;;;;;;;13.88;10.98;;;20.00;80.10;;;;;;5041466;28;20204;-65
2023/02/25 00:04:13;;;;;;;12.00;10.63;;;20.10;79.40;;;;;;5045432;28;20214;-64
2023/02/25 00:06:40;;;;;;;14.35;11.52;;;20.10;79.40;;;;;;5042344;28;20204;-65
2023/02/25 00:09:10;;;;;;;15.07;10.93;;;20.00;79.30;;;;;;5035028;28;20196;-64
2023/02/25 00:11:37;;;;;;;12.95;11.38;;;20.00;79.30;;;;;;5041260;28;20288;-64
2023/02/25 00:14:04;;;;;;;13.27;10.10;;;20.00;79.30;;;;;;5039730;28;20206;-65
2023/02/25 00:16:31;;;;;;;11.15;10.05;;;20.00;79.30;;;;;;5047906;28;21071;-64
2023/02/25 00:18:58;;;;;;;11.98;9.90;;;20.00;79.30;;;;;;5043954;28;20599;-65
2023/02/25 00:21:28;;;;;;;12.93;11.13;;;20.00;79.30;;;;;;5043098;28;20219;-65
2023/02/25 00:23:55;;;;;;;12.27;8.90;;;20.00;79.30;;;;;;5045018;28;20601;-65
2023/02/25 00:26:23;;;;;;;12.18;10.00;;;20.00;79.20;;;;;;5042068;28;20195;-64
2023/02/25 00:28:50;;;;;;;11.75;9.27;;;20.00;79.20;;;;;;5043120;28;20655;-65
2023/02/25 00:31:19;;;;;;;13.07;10.48;;;20.00;79.20;;;;;;5043969;28;20191;-64
2023/02/25 00:33:46;;;;;;;13.52;10.60;;;20.00;79.20;;;;;;5043332;28;20200;-64
2023/02/25 00:36:17;;;;;;;12.02;9.60;;;20.00;79.20;;;;;;5046890;28;20203;-64
2023/02/25 00:38:47;;;;;;;13.60;10.73;;;20.00;79.20;;;;;;5045060;28;20199;-64
2023/02/25 00:41:14;;;;;;;11.90;9.25;;;20.00;79.20;;;;;;5039290;28;20196;-64
2023/02/25 00:43:43;;;;;;;10.50;8.88;;;20.00;79.20;;;;;;5044483;28;20692;-64
2023/02/25 00:46:10;;;;;;;14.75;10.23;;;20.00;79.20;;;;;;5037025;28;20208;-63
2023/02/25 00:48:38;;;;;;;11.90;9.93;;;20.00;79.20;;;;;;5036326;28;20233;-64
2023/02/25 00:51:06;;;;;;;10.55;9.13;;;20.00;79.20;;;;;;5039706;28;20200;-64
2023/02/25 00:53:33;;;;;;;11.00;9.90;;;20.00;79.20;;;;;;5038837;28;20192;-64
2023/02/25 00:56:02;;;;;;;9.05;8.13;;;20.00;79.20;;;;;;5043753;28;20195;-63
2023/02/25 00:58:29;;;;;;;11.52;9.30;;;19.90;79.00;;;;;;5045126;28;20193;-64
2023/02/25 01:00:56;;;;;;;12.73;8.68;;;19.90;79.00;;;;;;5040450;28;20230;-63
2023/02/25 01:03:23;;;;;;;9.30;8.30;;;20.00;79.10;;;;;;5042920;28;20196;-64
2023/02/25 01:05:50;;;;;;;12.38;9.43;;;19.90;79.00;;;;;;5040575;28;20192;-65
2023/02/25 01:08:17;;;;;;;11.88;8.32;;;20.00;79.10;;;;;;5043033;28;20653;-63
2023/02/25 01:10:44;;;;;;;10.70;8.70;;;19.90;79.00;;;;;;5040782;28;20210;-64
2023/02/25 01:13:13;;;;;;;12.52;9.50;;;19.90;79.00;;;;;;5043703;28;20204;-65
2023/02/25 01:15:40;;;;;;;12.57;9.05;;;19.90;79.00;;;;;;5039953;28;20200;-65
2023/02/25 01:18:07;;;;;;;10.63;8.27;;;19.90;79.00;;;;;;5046876;28;20195;-64
2023/02/25 01:20:38;;;;;;;10.70;8.43;;;19.90;79.00;;;;;;5046775;28;20223;-64
2023/02/25 01:23:05;;;;;;;9.38;8.18;;;19.90;78.90;;;;;;5045043;28;20582;-64
2023/02/25 01:25:31;;;;;;;12.52;9.32;;;19.90;78.90;;;;;;5038295;28;20560;-64
2023/02/25 01:27:59;;;;;;;9.30;7.90;;;19.90;78.90;;;;;;5038022;28;20196;-64
2023/02/25 01:30:27;;;;;;;10.18;8.45;;;19.90;79.00;;;;;;5039872;28;20601;-64
2023/02/25 01:32:54;;;;;;;9.52;8.43;;;19.90;79.80;;;;;;5042804;28;20559;-64
2023/02/25 01:35:20;;;;;;;8.50;7.68;;;19.90;78.90;;;;;;5041191;28;20394;-65
2023/02/25 01:37:48;;;;;;;10.52;7.85;;;19.90;78.90;;;;;;5037373;28;20228;-65
2023/02/25 01:40:16;;;;;;;9.75;8.55;;;19.90;79.70;;;;;;5038064;28;20231;-64
2023/02/25 01:42:43;;;;;;;8.75;7.95;;;19.90;78.90;;;;;;5038101;28;20207;-65
2023/02/25 01:45:28;;;;;;;10.45;7.90;;;19.90;78.90;;;;;;5043531;28;20202;-65
2023/02/25 01:48:06;;;;;;;9.63;7.57;;;19.90;78.90;;;;;;5041109;28;20195;-64
2023/02/25 01:50:41;;;;;;;8.38;7.47;;;19.90;78.90;;;;;;5042055;28;20201;-65
2023/02/25 01:53:08;;;;;;;9.10;7.45;;;19.90;78.90;;;;;;5035590;28;20192;-63
2023/02/25 01:55:36;;;;;;;10.10;7.95;;;19.90;78.90;;;;;;5040323;28;20278;-63
2023/02/25 01:58:03;;;;;;;8.43;7.13;;;19.90;78.90;;;;;;5036931;28;20195;-65
2023/02/25 02:00:33;;;;;;;11.10;8.05;;;19.90;78.90;;;;;;5041133;28;20703;-65
2023/02/25 02:03:00;;;;;;;10.25;7.95;;;19.90;78.90;;;;;;5040244;28;20195;-64
2023/02/25 02:05:40;;;;;;;11.43;7.35;;;19.90;78.90;;;;;;5041503;28;20187;-64
2023/02/25 02:08:08;;;;;;;11.20;8.30;;;19.90;78.80;;;;;;5033356;28;20203;-64
2023/02/25 02:10:35;;;;;;;9.55;7.65;;;19.80;78.70;;;;;;5032780;28;20222;-64
2023/02/25 02:13:02;;;;;;;6.97;6.28;;;19.90;78.90;;;;;;5038184;28;20191;-65
2023/02/25 02:15:33;;;;;;;8.10;6.88;;;19.90;78.80;;;;;;5040914;28;20199;-64
2023/02/25 02:18:02;;;;;;;9.50;8.23;;;19.90;78.80;;;;;;5044031;28;20200;-65
2023/02/25 02:20:33;;;;;;;10.70;7.72;;;19.90;78.90;;;;;;5043997;28;20253;-64
2023/02/25 02:23:29;;;;;;;8.55;7.32;;;19.80;78.70;;;;;;5041120;28;20227;-65
2023/02/25 02:26:15;;;;;;;7.95;7.15;;;19.80;78.70;;;;;;5040468;28;20619;-65
2023/02/25 02:29:18;;;;;;;9.77;6.93;;;19.80;78.70;;;;;;5040842;28;20207;-65
2023/02/25 02:31:56;;;;;;;8.23;6.65;;;19.80;78.70;;;;;;5024990;28;20210;-65
2023/02/25 02:34:36;;;;;;;8.93;6.45;;;19.80;78.70;;;;;;5043661;28;20195;-63
2023/02/25 02:37:10;;;;;;;7.45;6.75;;;19.80;78.70;;;;;;5041713;28;20242;-65
2023/02/25 02:39:49;;;;;;;7.15;6.45;;;19.80;78.70;;;;;;5041906;28;20659;-65
2023/02/25 02:42:27;;;;;;;7.93;6.35;;;19.80;78.70;;;;;;5037778;28;20689;-64
2023/02/25 02:44:59;;;;;;;9.02;7.15;;;19.80;78.70;;;;;;5041275;28;20280;-63
2023/02/25 02:47:31;;;;;;;8.30;6.50;;;19.80;78.70;;;;;;5037353;28;20192;-64
2023/02/25 02:50:02;;;;;;;7.88;7.13;;;19.80;78.70;;;;;;5039788;28;20675;-64
2023/02/25 02:52:32;;;;;;;7.35;6.65;;;19.80;78.70;;;;;;5042894;28;20743;-65
2023/02/25 02:55:04;;;;;;;7.20;6.43;;;19.80;78.60;;;;;;5040571;28;20195;-64
2023/02/25 02:57:34;;;;;;;8.90;7.22;;;19.80;78.60;;;;;;5043946;28;20217;-64
2023/02/25 03:00:12;;;;;;;8.93;7.28;;;19.80;78.60;;;;;;5041780;28;20249;-64
2023/02/25 03:02:42;;;;;;;6.63;5.57;;;19.80;78.60;;;;;;5035210;28;20290;-65
2023/02/25 03:05:12;;;;;;;8.63;6.55;;;19.80;78.60;;;;;;5043190;28;20199;-64
2023/02/25 03:07:48;;;;;;;7.57;6.55;;;19.80;78.60;;;;;;5041978;28;20191;-64
2023/02/25 03:10:19;;;;;;;7.55;6.70;;;19.80;78.60;;;;;;5036200;28;20617;-62
2023/02/25 03:12:46;;;;;;;7.35;5.82;;;19.80;78.50;;;;;;5033147;28;20207;-64
2023/02/25 03:15:13;;;;;;;7.53;6.20;;;19.80;78.50;;;;;;5036051;28;20199;-64
2023/02/25 03:17:44;;;;;;;9.07;6.50;;;19.80;78.50;;;;;;5044035;28;20278;-64
2023/02/25 03:20:15;;;;;;;7.75;6.32;;;19.80;78.50;;;;;;5039637;28;20224;-64
2023/02/25 03:22:45;;;;;;;6.85;5.57;;;19.80;78.50;;;;;;5034204;28;20212;-64
2023/02/25 03:25:16;;;;;;;8.27;7.22;;;19.80;78.50;;;;;;5037013;28;20207;-64
2023/02/25 03:27:44;;;;;;;6.95;6.28;;;19.80;78.50;;;;;;5045807;28;20567;-64
2023/02/25 03:30:21;;;;;;;8.40;6.22;;;19.80;78.50;;;;;;5034182;28;20212;-63
2023/02/25 03:32:54;;;;;;;8.07;6.47;;;19.80;78.50;;;;;;5045254;28;20203;-64
2023/02/25 03:35:21;;;;;;;8.00;7.18;;;19.80;78.50;;;;;;5042701;28;20218;-64
2023/02/25 03:37:52;;;;;;;7.22;5.75;;;19.80;78.50;;;;;;5034199;28;20203;-64
2023/02/25 03:40:21;;;;;;;9.48;6.15;;;19.70;78.40;;;;;;5037788;28;20246;-65
2023/02/25 03:42:54;;;;;;;6.25;5.40;;;19.70;78.40;;;;;;5038188;28;20199;-64
2023/02/25 03:45:22;;;;;;;7.05;6.32;;;19.70;78.40;;;;;;5042502;28;20316;-64
2023/02/25 03:47:51;;;;;;;7.20;5.82;;;19.70;78.30;;;;;;5037839;28;20212;-64
2023/02/25 03:50:22;;;;;;;6.35;5.40;;;19.70;78.30;;;;;;5040852;28;20502;-65
2023/02/25 03:52:48;;;;;;;6.10;5.45;;;19.70;78.30;;;;;;5038306;28;20199;-65
2023/02/25 03:55:17;;;;;;;6.25;4.97;;;19.70;78.30;;;;;;5042218;28;20537;-64
2023/02/25 03:57:46;;;;;;;6.57;5.88;;;19.70;78.20;;;;;;5044847;28;20195;-65
2023/02/25 04:00:18;;;;;;;6.03;5.35;;;19.70;78.30;;;;;;5041563;28;20246;-64
2023/02/25 04:02:46;;;;;;;7.30;5.68;;;19.70;78.30;;;;;;5042537;28;20200;-65
2023/02/25 04:05:15;;;;;;;6.90;5.50;;;19.70;78.30;;;;;;5043229;28;20619;-64
2023/02/25 04:07:42;;;;;;;6.25;5.40;;;19.70;78.30;;;;;;5044644;28;20196;-65
2023/02/25 04:10:11;;;;;;;6.40;5.32;;;19.70;78.20;;;;;;5041175;28;20575;-65
2023/02/25 04:12:38;;;;;;;6.05;5.25;;;19.70;78.20;;;;;;5040393;28;20573;-65
2023/02/25 04:15:06;;;;;;;6.40;5.65;;;19.70;78.20;;;;;;5045483;28;20564;-63
2023/02/25 04:17:33;;;;;;;5.90;5.25;;;19.70;78.20;;;;;;5043339;28;20199;-64
2023/02/25 04:20:00;;;;;;;5.97;5.38;;;19.70;78.20;;;;;;5041677;28;20207;-65
2023/02/25 04:22:28;;;;;;;6.55;5.25;;;19.70;78.20;;;;;;5043025;28;20224;-64
2023/02/25 04:24:55;;;;;;;7.22;6.53;;;19.70;78.20;;;;;;5048206;28;20230;-65
2023/02/25 04:27:21;;;;;;;5.97;4.95;;;19.70;78.20;;;;;;5043560;28;20204;-65
2023/02/25 04:29:48;;;;;;;5.40;4.70;;;19.70;78.20;;;;;;5040328;28;20663;-64
2023/02/25 04:32:15;;;;;;;6.38;5.43;;;19.70;78.20;;;;;;5040927;28;20204;-63
2023/02/25 04:34:41;;;;;;;5.00;4.55;;;19.70;78.20;;;;;;5041084;28;20602;-64
2023/02/25 04:37:08;;;;;;;5.85;5.25;;;19.70;78.20;;;;;;5044633;28;20200;-64
2023/02/25 04:39:37;;;;;;;5.25;4.68;;;19.70;78.20;;;;;;5037476;28;20632;-65
2023/02/25 04:42:04;;;;;;;5.50;4.57;;;19.70;78.10;;;;;;5040278;28;20531;-64
2023/02/25 04:44:31;;;;;;;5.68;5.07;;;19.70;78.10;;;;;;5040755;28;20211;-64
2023/02/25 04:46:57;;;;;;;4.72;4.22;;;19.70;78.10;;;;;;5040912;28;20214;-64
2023/02/25 04:49:24;;;;;;;6.35;5.10;;;19.70;78.10;;;;;;5041181;28;20196;-65
2023/02/25 04:51:51;;;;;;;5.15;4.65;;;19.70;78.10;;;;;;5040380;28;20206;-65
2023/02/25 04:54:18;;;;;;;4.75;4.25;;;19.70;78.10;;;;;;5038400;28;20199;-64
2023/02/25 04:56:47;;;;;;;5.80;4.53;;;19.70;78.10;;;;;;5043820;28;20211;-63
2023/02/25 04:59:14;;;;;;;6.18;5.10;;;19.70;78.10;;;;;;5040721;28;20618;-65
2023/02/25 05:01:42;;;;;;;6.25;4.32;;;19.70;78.10;;;;;;5043426;28;20231;-64
2023/02/25 05:04:08;;;;;;;5.80;4.95;;;19.70;78.20;;;;;;5041069;28;20250;-65
2023/02/25 05:06:35;;;;;;;6.70;5.35;;;19.70;78.10;;;;;;5044264;28;20200;-64
2023/02/25 05:09:02;;;;;;;5.78;5.05;;;19.70;78.10;;;;;;5042184;28;20195;-65
2023/02/25 05:11:29;;;;;;;4.47;4.07;;;19.70;78.00;;;;;;5042018;28;20218;-64
2023/02/25 05:13:57;;;;;;;5.03;4.40;;;19.70;78.00;;;;;;5046375;28;20671;-64
2023/02/25 05:16:25;;;;;;;7.13;5.03;;;19.70;78.10;;;;;;5045920;28;20210;-64
2023/02/25 05:18:52;;;;;;;5.22;4.35;;;19.60;77.90;;;;;;5035342;28;20192;-65
2023/02/25 05:21:21;;;;;;;4.93;4.38;;;19.70;78.00;;;;;;5040234;28;20224;-64
2023/02/25 05:23:50;;;;;;;6.30;4.43;;;19.70;78.00;;;;;;5036391;28;20670;-64
2023/02/25 05:26:20;;;;;;;4.57;4.03;;;19.70;78.00;;;;;;5032134;28;20627;-64
2023/02/25 05:28:48;;;;;;;4.15;3.58;;;19.70;78.00;;;;;;5044299;28;20247;-64
2023/02/25 05:31:17;;;;;;;4.78;3.75;;;19.70;78.00;;;;;;5038319;28;20196;-64
2023/02/25 05:33:44;;;;;;;5.88;5.07;;;19.70;78.00;;;;;;5040901;28;20208;-64
2023/02/25 05:36:14;;;;;;;5.15;4.55;;;19.70;78.00;;;;;;5038761;28;20203;-65
2023/02/25 05:38:41;;;;;;;7.05;4.40;;;19.70;78.00;;;;;;5035946;28;20234;-64
2023/02/25 05:41:09;;;;;;;5.00;4.05;;;19.60;77.80;;;;;;5039862;28;20215;-64
2023/02/25 05:43:37;;;;;;;4.20;3.80;;;19.60;77.80;;;;;;5036571;28;20218;-64
2023/02/25 05:46:10;;;;;;;4.43;3.80;;;19.60;77.80;;;;;;5035077;28;20291;-65
2023/02/25 05:48:39;;;;;;;4.10;3.70;;;19.60;77.80;;;;;;5036566;28;20278;-65
2023/02/25 05:51:08;;;;;;;4.25;3.95;;;19.70;78.00;;;;;;5041002;28;20575;-65
2023/02/25 05:53:36;;;;;;;5.00;4.50;;;19.70;77.90;;;;;;5043641;28;20926;-64
2023/02/25 05:56:05;;;;;;;5.32;4.43;;;19.60;77.80;;;;;;5039574;28;20675;-64
2023/02/25 05:58:32;;;;;;;5.50;4.60;;;19.60;77.80;;;;;;5045113;28;20683;-64
2023/02/25 06:00:58;;;;;;;4.55;4.15;;;19.60;77.80;;;;;;5039026;28;20228;-64
2023/02/25 06:03:25;;;;;;;6.30;4.50;;;19.60;77.80;;;;;;5043119;28;20195;-65
2023/02/25 06:05:53;;;;;;;5.22;4.53;;;19.70;77.90;;;;;;5044329;28;20195;-65
2023/02/25 06:08:20;;;;;;;4.97;3.85;;;19.60;77.80;;;;;;5040715;28;20207;-64
2023/02/25 06:10:47;;;;;;;5.13;4.53;;;19.60;77.80;;;;;;5039865;28;20682;-64
2023/02/25 06:13:14;;;;;;;4.30;3.90;;;19.60;77.80;;;;;;5037343;28;20191;-64
2023/02/25 06:15:42;;;;;;;4.80;4.10;;;19.60;77.80;;;;;;5033639;28;20222;-65
2023/02/25 06:18:09;;;;;;;4.90;4.20;;;19.60;77.80;;;;;;5037174;28;20274;-64
2023/02/25 06:20:36;;;;;;;3.97;3.45;;;19.60;77.80;;;;;;5041232;28;20242;-64
2023/02/25 06:23:05;;;;;;;4.30;3.90;;;19.60;77.80;;;;;;5035301;28;20247;-65
2023/02/25 06:25:32;;;;;;;4.13;3.40;;;19.60;77.80;;;;;;5039010;28;20222;-64
2023/02/25 06:27:59;;;;;;;4.00;3.47;;;19.70;77.90;;;;;;5038975;28;20268;-64
2023/02/25 06:30:26;;;;;;;4.15;3.75;;;19.70;77.90;;;;;;5037315;28;20199;-63
2023/02/25 06:32:53;;;;;;;4.20;3.40;;;19.70;77.90;;;;;;5033654;28;20578;-63
2023/02/25 06:35:22;;;;;;;5.28;4.78;;;19.70;77.90;;;;;;5040177;28;20200;-64
2023/02/25 06:37:49;;;;;;;4.05;3.65;;;19.70;77.90;;;;;;5037539;28;20210;-64
2023/02/25 06:40:17;;;;;;;4.70;3.78;;;19.70;77.90;;;;;;5037112;28;20466;-65
2023/02/25 06:42:44;;;;;;;4.30;3.90;;;19.70;77.80;;;;;;5038331;28;20701;-64
2023/02/25 06:45:11;;;;;;;4.55;3.30;;;19.70;77.80;;;;;;5040948;28;20192;-64
2023/02/25 06:47:38;;;;;;;5.07;3.67;;;19.70;77.80;;;;;;5043352;28;20194;-62
2023/02/25 06:50:05;;;;;;;5.68;3.45;;;19.70;77.80;;;;;;5037754;28;20198;-67
2023/02/25 06:52:32;;;;;;;4.63;3.25;;;19.70;77.90;;;;;;5042016;28;20552;-63
2023/02/25 06:54:59;;;;;;;7.25;3.55;;;19.70;78.20;;;;;;5038285;28;20192;-63
2023/02/25 06:57:27;;;;;;;4.35;3.70;;;19.70;78.10;;;;;;5039285;28;20199;-68
2023/02/25 06:59:54;;;;;;;6.88;3.47;;;19.70;78.20;;;;;;5044207;28;20242;-64
2023/02/25 07:02:20;;;;;;;4.68;3.70;;;19.70;78.20;;;;;;5044284;28;20215;-65
2023/02/25 07:04:47;;;;;;;6.60;3.22;;;19.80;78.40;;;;;;5042863;28;20207;-63
2023/02/25 07:07:14;;;;;;;3.10;2.75;;;19.80;78.40;;;;;;5046039;28;20200;-64
2023/02/25 07:09:40;;;;;;;5.50;3.60;;;19.80;78.40;;;;;;5047270;28;20199;-65
2023/02/25 07:12:07;;;;;;;4.35;3.75;;;19.90;78.50;;;;;;5039807;28;20218;-63
2023/02/25 07:14:35;;;;;;;4.07;3.72;;;19.90;78.60;;;;;;5045707;28;20539;-64
2023/02/25 07:17:02;;;;;;;3.80;3.33;;;19.90;78.70;;;;;;5045126;28;20203;-63
2023/02/25 07:19:29;;;;;;;4.28;3.65;;;19.90;78.70;;;;;;5047311;28;20362;-60
2023/02/25 07:21:56;;;;;;;5.03;4.03;;;19.90;78.80;;;;;;5050910;28;20595;-67
2023/02/25 07:24:23;;;;;;;4.07;3.75;;;20.00;79.00;;;;;;5046665;28;20286;-65
2023/02/25 07:26:50;;;;;;;3.90;3.00;;;20.00;79.10;;;;;;5044810;28;20200;-66
2023/02/25 07:29:17;;;;;;;3.67;3.38;;;20.00;79.10;;;;;;5041858;28;20200;-66
2023/02/25 07:31:45;;;;;;;4.03;3.30;;;20.00;79.30;;;;;;5035384;28;20208;-65
2023/02/25 07:34:11;;;;;;;4.57;3.30;;;20.00;79.30;;;;;;5041464;28;20208;-63
2023/02/25 07:36:38;;;;;;;4.07;3.72;;;20.10;79.40;;;;;;5039858;28;20667;-64
2023/02/25 07:39:07;;;;;;;3.92;3.03;;;20.10;79.40;;;;;;5036208;28;20207;-64
2023/02/25 07:41:34;;;;;;;6.20;3.70;;;20.00;79.30;;;;;;5036353;28;20239;-63
2023/02/25 07:44:01;;;;;;;3.15;2.95;;;20.00;79.30;;;;;;5042241;28;20215;-64
2023/02/25 07:46:29;;;;;;;5.53;3.30;;;20.00;79.30;;;;;;5044124;28;20211;-63
2023/02/25 07:48:57;;;;;;;4.00;3.45;;;20.00;79.20;;;;;;5045543;28;20207;-64
2023/02/25 07:51:25;;;;;;;3.85;3.47;;;20.00;79.20;;;;;;5040744;28;20875;-58
2023/02/25 07:53:53;;;;;;;4.45;3.90;;;20.10;79.50;;;;;;5039741;28;20576;-62
2023/02/25 07:56:22;;;;;;;11.13;4.32;;;20.10;79.30;;;;;;5046537;28;20196;-63
2023/02/25 07:58:49;;;;;;;6.25;3.20;;;20.10;79.30;;;;;;5043820;28;20704;-61
2023/02/25 08:01:22;;;;;;;3.20;2.90;;;20.10;79.20;;;;;;5043201;28;20214;-62
2023/02/25 08:03:48;;;;;;;6.32;3.35;;;20.20;79.40;;;;;;5038974;28;20200;-62
2023/02/25 08:06:17;;;;;;;6.53;3.33;;;20.20;79.50;;;;;;5043782;28;20191;-62
2023/02/25 08:08:44;;;;;;;4.35;3.30;;;20.20;79.50;;;;;;5047848;28;20598;-64
2023/02/25 08:11:12;;;;;;;3.25;2.95;;;20.20;79.50;;;;;;5034985;28;20262;-64
2023/02/25 08:13:40;;;;;;;3.75;3.30;;;20.20;79.60;;;;;;5040636;28;20655;-64
2023/02/25 08:16:08;;;;;;;4.25;2.65;;;20.30;79.60;;;;;;5045238;28;20537;-64
2023/02/25 08:18:35;;;;;;;3.47;3.17;;;20.30;79.60;;;;;;5046292;28;20202;-61
2023/02/25 08:21:03;;;;;;;3.10;2.90;;;20.30;79.70;;;;;;5048880;28;20199;-59
2023/02/25 08:23:31;;;;;;;4.05;3.67;;;20.30;79.70;;;;;;5041648;28;20266;-61
2023/02/25 08:25:59;;;;;;;3.40;3.05;;;20.30;79.70;;;;;;5045979;28;20195;-66
2023/02/25 08:28:27;;;;;;;3.85;2.83;;;20.30;79.60;;;;;;5047692;28;20680;-64
2023/02/25 08:30:54;;;;;;;4.90;3.30;;;20.30;79.70;;;;;;5049433;28;20207;-59
2023/02/25 08:33:22;;;;;;;5.53;3.30;;;20.40;79.80;;;;;;5042207;28;20469;-60
2023/02/25 08:35:50;;;;;;;3.33;2.80;;;20.40;80.00;;;;;;5042948;28;20400;-61
2023/02/25 08:38:17;;;;;;;3.78;2.90;;;20.30;79.80;;;;;;5045988;28;20556;-62
2023/02/25 08:40:45;;;;;;;3.55;3.25;;;20.30;80.00;;;;;;5046208;28;20208;-62
2023/02/25 08:43:12;;;;;;;4.00;2.83;;;20.30;80.00;;;;;;5044027;28;20231;-62
2023/02/25 08:45:41;;;;;;;3.10;2.80;;;20.30;80.00;;;;;;5045851;28;20206;-62
2023/02/25 08:48:09;;;;;;;4.10;3.13;;;20.30;80.00;;;;;;5039086;28;20204;-62
2023/02/25 08:50:36;;;;;;;3.35;3.05;;;20.30;80.00;;;;;;5043351;28;20230;-63
2023/02/25 08:53:03;;;;;;;3.28;2.97;;;20.20;79.80;;;;;;5043785;28;20210;-62
2023/02/25 08:55:29;;;;;;;3.60;2.55;;;20.20;79.70;;;;;;5038248;28;20656;-62
2023/02/25 08:57:57;;;;;;;3.60;2.88;;;20.20;79.70;;;;;;5044244;28;20195;-62
2023/02/25 09:00:25;;;;;;;3.58;2.28;;;20.20;79.70;;;;;;5037913;28;20233;-62
2023/02/25 09:02:51;;;;;;;3.55;3.25;;;20.20;79.60;;;;;;5041825;28;20219;-62
2023/02/25 09:05:18;;;;;;;3.80;3.13;;;20.20;79.50;;;;;;5041061;28;20234;-62
2023/02/25 09:07:45;;;;;;;3.70;2.88;;;20.20;79.50;;;;;;5043382;28;20199;-63
2023/02/25 09:10:13;;;;;;;3.03;2.60;;;20.20;79.40;;;;;;5042059;28;20199;-62
2023/02/25 09:12:41;;;;;;;3.33;2.72;;;20.20;79.30;;;;;;5040902;28;20282;-62
2023/02/25 09:15:11;;;;;;;3.25;2.95;;;20.20;79.30;;;;;;5044271;28;20195;-62
2023/02/25 09:17:39;;;;;;;3.20;2.83;;;20.20;79.30;;;;;;5038099;28;20218;-62
2023/02/25 09:20:10;;;;;;;2.95;2.65;;;20.20;79.20;;;;;;5044762;28;20200;-62
2023/02/25 09:22:37;;;;;;;3.95;3.28;;;20.20;79.20;;;;;;5040219;28;20224;-61
2023/02/25 09:25:05;;;;;;;4.72;2.65;;;20.20;79.20;;;;;;5047143;28;20207;-62
2023/02/25 09:27:31;;;;;;;2.45;2.25;;;20.20;79.20;;;;;;5044148;28;20200;-62
2023/02/25 09:29:59;;;;;;;5.00;2.95;;;20.20;79.10;;;;;;5037729;28;20203;-62
2023/02/25 09:32:27;;;;;;;4.10;2.97;;;20.20;79.00;;;;;;5046160;28;20210;-65
2023/02/25 09:34:53;;;;;;;7.47;3.13;;;20.20;79.00;;;;;;5043774;28;20678;-59
2023/02/25 09:37:20;;;;;;;4.95;2.90;;;20.20;79.20;;;;;;5042420;28;20462;-64
2023/02/25 09:39:47;;;;;;;3.92;2.53;;;20.30;79.30;;;;;;5043348;28;20612;-64
2023/02/25 09:42:18;;;;;;;4.60;2.65;;;20.30;79.30;;;;;;5037231;28;20311;-65
2023/02/25 09:44:47;;;;;;;4.18;2.38;;;20.30;79.30;;;;;;5043020;28;20658;-64
2023/02/25 09:47:18;;;;;;;3.60;2.90;;;20.30;79.50;;;;;;5040690;28;20681;-64
2023/02/25 09:49:51;;;;;;;3.53;2.55;;;20.40;79.60;;;;;;5035484;28;20292;-64
2023/02/25 09:52:23;;;;;;;4.15;2.47;;;20.40;79.70;;;;;;5039098;28;20206;-64
2023/02/25 09:54:54;;;;;;;8.80;3.10;;;20.40;79.70;;;;;;5040820;28;20196;-67
2023/02/25 09:57:22;;;;;;;3.22;2.60;;;20.40;79.80;;;;;;5044337;28;20689;-66
2023/02/25 09:59:52;;;;;;;4.10;2.75;;;20.40;79.80;;;;;;5038985;28;20200;-67
2023/02/25 10:02:34;;;;;;;4.72;2.17;;;20.40;79.90;;;;;;5042236;28;20222;-66
2023/02/25 10:05:15;;;;;;;2.90;2.60;;;20.40;80.00;;;;;;5037707;28;20283;-66
2023/02/25 10:07:53;;;;;;;3.33;2.60;;;20.40;80.10;;;;;;5035917;28;20286;-68
2023/02/25 10:10:27;;;;;;;4.13;2.22;;;20.40;80.10;;;;;;5035952;28;20356;-65
2023/02/25 10:13:00;;;;;;;7.03;2.90;;;20.40;80.10;;;;;;5034601;28;20208;-62
2023/02/25 10:15:43;;;;;;;3.53;2.30;;;20.40;80.30;;;;;;5044797;28;20195;-60
2023/02/25 10:18:23;;;;;;;2.30;2.10;;;20.40;80.10;;;;;;5042373;28;20216;-65
2023/02/25 10:21:02;;;;;;;2.37;2.10;;;20.40;80.20;;;;;;5037359;28;20224;-64
2023/02/25 10:23:43;;;;;;;3.97;2.75;;;20.40;80.30;;;;;;5045966;28;20841;-66
2023/02/25 10:26:16;;;;;;;2.70;2.30;;;20.40;80.30;;;;;;5039617;28;20252;-67
2023/02/25 10:28:45;;;;;;;3.47;2.28;;;20.40;80.30;;;;;;5038345;28;20239;-63
2023/02/25 10:31:17;;;;;;;4.55;2.42;;;20.50;80.30;;;;;;5043760;28;20198;-68
2023/02/25 10:33:45;;;;;;;2.63;2.42;;;20.50;80.30;;;;;;5033988;28;20610;-63
2023/02/25 10:36:16;;;;;;;4.68;2.30;;;20.50;80.30;;;;;;5036086;28;20199;-67
2023/02/25 10:38:45;;;;;;;3.45;3.15;;;20.50;80.30;;;;;;5040058;28;20246;-66
2023/02/25 10:41:13;;;;;;;2.40;2.17;;;20.50;80.30;;;;;;5039107;28;20210;-68
2023/02/25 10:43:40;;;;;;;5.07;2.50;;;20.60;80.40;;;;;;5040044;28;20687;-59
2023/02/25 10:46:14;;;;;;;2.08;1.88;;;20.60;80.30;;;;;;5041725;28;20203;-64
2023/02/25 10:48:43;;;;;;;2.55;1.95;;;20.60;80.30;;;;;;5044011;28;20195;-64
2023/02/25 10:51:12;;;;;;;1.92;1.73;;;20.60;80.30;;;;;;5048489;28;20199;-62
2023/02/25 10:53:59;;;;;;;5.68;1.95;;;20.60;80.30;;;;;;5034898;28;20195;-62
2023/02/25 10:56:30;;;;;;;2.90;2.33;;;20.60;80.40;;;;;;5040523;28;20203;-61
2023/02/25 10:59:03;;;;;;;1.70;1.60;;;20.60;80.30;;;;;;5036921;28;20198;-63
2023/02/25 11:01:37;;;;;;;2.50;2.30;;;20.60;80.20;;;;;;5040300;28;20449;-58
2023/02/25 11:04:09;;;;;;;4.38;2.38;;;20.60;80.30;;;;;;5040227;28;20855;-66
2023/02/25 11:06:37;;;;;;;3.08;2.28;;;20.60;80.20;;;;;;5039117;28;20195;-64
2023/02/25 11:09:27;;;;;;;1.80;1.60;;;20.60;80.20;;;;;;5044534;28;20647;-64
2023/02/25 11:11:57;;;;;;;2.10;1.83;;;20.60;80.20;;;;;;5034707;28;20200;-65
2023/02/25 11:14:27;;;;;;;3.25;2.20;;;20.60;80.30;;;;;;5038362;28;20566;-65
2023/02/25 11:17:02;;;;;;;4.37;2.33;;;20.60;80.20;;;;;;5037116;28;20218;-62
2023/02/25 11:19:32;;;;;;;2.53;1.90;;;20.60;80.10;;;;;;5047250;28;20460;-64
2023/02/25 11:22:06;;;;;;;2.75;1.95;;;20.60;80.10;;;;;;5041505;28;20215;-59
2023/02/25 11:24:35;;;;;;;3.45;1.90;;;20.60;80.20;;;;;;5042278;28;20227;-60
2023/02/25 11:27:06;;;;;;;2.10;1.88;;;20.60;80.20;;;;;;5042131;28;20203;-63
2023/02/25 11:29:36;;;;;;;2.72;2.10;;;20.60;80.20;;;;;;5044695;28;20199;-64
2023/02/25 11:32:10;;;;;;;3.13;1.83;;;20.60;80.10;;;;;;5036065;28;20199;-63
2023/02/25 11:34:46;;;;;;;2.17;1.80;;;20.60;80.20;;;;;;5045046;28;20195;-64
2023/02/25 11:37:34;;;;;;;2.67;1.92;;;20.60;80.10;;;;;;5038257;28;20594;-66
2023/02/25 11:40:00;;;;;;;2.37;1.60;;;20.60;80.10;;;;;;5045612;28;20450;-64
2023/02/25 11:42:30;;;;;;;3.03;1.93;;;20.60;80.00;;;;;;5044427;28;20455;-64
2023/02/25 11:45:00;;;;;;;2.58;1.65;;;20.60;79.90;;;;;;5046428;28;20485;-64
2023/02/25 11:47:29;;;;;;;1.65;1.55;;;20.60;79.90;;;;;;5044706;28;20196;-62
2023/02/25 11:50:22;;;;;;;2.47;1.80;;;20.60;79.80;;;;;;5050235;28;20199;-63
2023/02/25 11:52:57;;;;;;;2.90;1.60;;;20.60;79.80;;;;;;5048519;28;20457;-64
2023/02/25 11:55:44;;;;;;;1.87;1.77;;;20.70;79.90;;;;;;5044562;28;20772;-63
2023/02/25 11:58:22;;;;;;;3.67;1.90;;;20.70;79.90;;;;;;5039628;28;20458;-67
2023/02/25 12:00:58;;;;;;;1.70;1.40;;;20.70;79.80;;;;;;5036754;28;20219;-66
2023/02/25 12:03:45;;;;;;;1.67;1.20;;;20.70;79.80;;;;;;5046215;28;20218;-64
2023/02/25 12:06:32;;;;;;;2.13;1.87;;;20.70;79.90;;;;;;5044967;28;20451;-70
2023/02/25 12:09:34;;;;;;;2.00;1.40;;;20.60;79.70;;;;;;5042091;28;20469;-67
2023/02/25 12:12:42;;;;;;;1.83;1.60;;;20.70;79.80;;;;;;5040442;28;20457;-62
2023/02/25 12:16:06;;;;;;;2.22;1.60;;;20.70;79.80;;;;;;4967421;28;20198;-66
2023/02/25 12:19:28;;;;;;;3.08;1.80;;;20.70;79.80;;;;;;4958163;28;20198;-60
2023/02/25 12:22:28;;;;;;;2.13;1.70;;;20.70;79.80;;;;;;4989805;28;20228;-67
2023/02/25 12:25:16;;;;;;;2.25;1.90;;;20.70;79.80;;;;;;5038135;28;20195;-66
2023/02/25 12:28:10;;;;;;;1.92;1.70;;;20.70;79.80;;;;;;5039239;28;20200;-63
2023/02/25 12:30:51;;;;;;;5.60;1.90;;;20.70;79.80;;;;;;5042042;28;20222;-65
2023/02/25 12:33:43;;;;;;;3.35;1.23;;;20.30;65.60;;;;;;5039846;28;20459;-66
2023/02/25 12:36:35;;;;;;;5.97;1.30;;;19.80;61.40;;;;;;5046684;28;20659;-65
2023/02/25 12:39:18;;;;;;;6.13;1.58;;;19.50;56.70;;;;;;5046975;28;20196;-66
2023/02/25 12:41:52;;;;;;;2.75;1.30;;;19.20;53.60;;;;;;5048724;28;20207;-66
2023/02/25 12:44:54;;;;;;;2.15;0.95;;;19.10;52.00;;;;;;5048920;28;20544;-65
2023/02/25 12:47:41;;;;;;;3.45;1.02;;;18.90;50.30;;;;;;5046961;28;20582;-65
2023/02/25 12:50:38;;;;;;;2.13;1.25;;;18.70;49.10;;;;;;5044543;28;20206;-66
2023/02/25 12:53:31;;;;;;;3.35;1.33;;;18.70;48.40;;;;;;5037784;28;20659;-56
2023/02/25 12:56:27;;;;;;;3.95;1.58;;;18.60;48.90;;;;;;5043036;28;20560;-62
2023/02/25 12:59:21;;;;;;;2.28;1.13;;;19.00;52.30;;;;;;5035807;28;20203;-65
2023/02/25 13:02:17;;;;;;;4.18;1.75;;;19.40;55.40;;;;;;5042073;28;20283;-63
2023/02/25 13:05:17;;;;;;;3.00;1.63;;;19.70;57.10;;;;;;5044502;28;20693;-63
2023/02/25 13:08:12;;;;;;;5.20;1.35;;;19.90;58.30;;;;;;5043094;28;20231;-56